Погода METAR - Абакан

Кемерово, Новокузнецк Абакан, Красноярск, Новосибирск
Код METAR: UNAA 092030Z 16001MPS CAVOK 13/12 Q1004 R20/CLRD63 NOSIG RMK QFE731

Погода - Сейчас

Время: 2026-05-10 03:30, местное
Направление ветра: Юг-юго-восток (160°)
Скорость ветра: 1 м/с
Видимость: более 10км, отсутствие осадков и облаков ниже 1500 м
Температура: 13°C
Точка росы: 12°C
Атмосферное давление: 1004 гПа

Архив погоды

Время, местное Направление Скорость, м/с Температура, °C Точка росы, °C Давление, гПа Видимость
2026-05-10 03:30 ЮЮВ (160°) 1 13 12 1004 более 10км, отсутствие осадков и облаков ниже 1500 м
2026-05-10 02:30 ЮЮЗ (200°) 2 13 11 1004 менее 0.17 км
2026-05-08 14:30 Переменный 1 22 7 1012 более 10км, отсутствие осадков и облаков ниже 1500 м
2026-05-08 07:00 Штиль 0 7 7 1016 менее 0.15 км
2026-05-08 06:30 Штиль 0 6 6 1016 менее 0.15 км
2026-05-08 05:30 Штиль 0 6 6 1016 менее 0.1 км
2026-05-06 06:00 Ю (180°) 5 11 8 1017 более 10км
2026-05-05 11:30 ЮЗ (220°) 3 15 -5 1021 более 10км, отсутствие осадков и облаков ниже 1500 м
2026-05-02 08:00 Ю (190°) 2 9 0 1015 более 10км, отсутствие осадков и облаков ниже 1500 м
2026-05-01 10:00 Переменный 1 14 -3 1023 более 10км, отсутствие осадков и облаков ниже 1500 м
2026-04-29 20:00 ЮЮВ (150°) 2 13 -3 1029 более 10км, отсутствие осадков и облаков ниже 1500 м
2026-04-28 07:00 СЗ (320°) 3 6 4 1022 менее 0.27 км
2026-04-25 10:30 Ю (190°) 2 12 4 1020 более 10км, отсутствие осадков и облаков ниже 1500 м
2026-04-24 21:00 СЗ (320°) 2 11 2 1018 менее 0.26 км
2026-04-22 22:00 Штиль 0 1 -3 1016 более 10км, отсутствие осадков и облаков ниже 1500 м
2026-04-19 23:00 ЮЗ (210°) 5 9 -5 1015 более 10км, отсутствие осадков и облаков ниже 1500 м
2026-04-19 20:00 ЗЮЗ (240°) 5 11 -4 1016 более 10км, отсутствие осадков и облаков ниже 1500 м
2026-04-18 02:00 ЮЗ (220°) 3 -6 -8 1020 более 10км, отсутствие осадков и облаков ниже 1500 м
2026-04-13 07:00 ЮЗ (220°) 11 5 0 1011 более 10км, отсутствие осадков и облаков ниже 1500 м
2026-04-12 15:00 ЗЮЗ (240°) 7, порывы до 13 5 -10 1021 более 10км, отсутствие осадков и облаков ниже 1500 м
2026-04-12 11:00 ЮЗ (230°) 7 4 -13 1023 более 10км, отсутствие осадков и облаков ниже 1500 м
2026-04-11 07:00 Штиль 0 -4 -10 1026 более 10км, отсутствие осадков и облаков ниже 1500 м
2026-04-09 22:00 Штиль 0 1 -9 1019 более 10км, отсутствие осадков и облаков ниже 1500 м
2026-04-08 13:30 ЗЮЗ (260°) 1 13 -1 1004 более 10км, отсутствие осадков и облаков ниже 1500 м
2026-04-06 21:30 ЗЮЗ (250°) 4 10 4 1009 более 10км, отсутствие осадков и облаков ниже 1500 м
2026-04-06 09:30 Ю (190°) 4 14 0 1003 более 10км, отсутствие осадков и облаков ниже 1500 м
2026-04-04 08:30 Штиль 0 4 -3 1017 более 10км, отсутствие осадков и облаков ниже 1500 м
2026-04-02 16:00 ЗЮЗ (250°) 2 12 -9 1019 менее 0.18 км
2026-04-01 03:00 Штиль 0 -4 -7 1015 более 10км, отсутствие осадков и облаков ниже 1500 м
2026-03-31 13:30 Штиль 0 7 -11 1017 более 10км, отсутствие осадков и облаков ниже 1500 м
2026-03-29 16:00 ССЗ (340°) 2 12 -2 1012 более 10км, отсутствие осадков и облаков ниже 1500 м
2026-03-28 19:00 С (350°) 3 6 -2 1020 более 10км, отсутствие осадков и облаков ниже 1500 м
2026-03-28 11:30 ЮЗ (220°) 2 7 0 1025 менее 0.18 км
2026-03-26 17:30 Штиль 0 4 -2 1023 более 10км, отсутствие осадков и облаков ниже 1500 м
2026-03-25 22:00 ЮЗ (210°) 7 4 -8 1024 более 10км, отсутствие осадков и облаков ниже 1500 м
2026-03-25 01:30 ЮЗ (220°) 3 -3 -7 1024 более 10км, отсутствие осадков и облаков ниже 1500 м
2026-03-24 00:00 ЮЗ (210°) 5 3 -5 1011 более 10км, отсутствие осадков и облаков ниже 1500 м
2026-03-23 07:00 ЗЮЗ (240°) 7 2 -5 1013 более 10км, отсутствие осадков и облаков ниже 1500 м
2026-03-22 01:00 ЮЮЗ (200°) 3 0 -6 1015 более 10км, отсутствие осадков и облаков ниже 1500 м
2026-03-21 07:30 ЮЗ (220°) 6 2 -6 1018 более 10км, отсутствие осадков и облаков ниже 1500 м
2026-03-21 03:30 ЮЗ (220°) 8 3 -7 1017 более 10км, отсутствие осадков и облаков ниже 1500 м
2026-03-21 02:30 ЮЗ (220°) 7 3 -7 1017 более 10км, отсутствие осадков и облаков ниже 1500 м
2026-03-19 14:30 ЗЮЗ (240°) 6 4 -10 1016 более 10км, отсутствие осадков и облаков ниже 1500 м
2026-03-17 22:00 Штиль 0 -5 -7 1025 менее 4.3 км
2026-03-15 22:30 С (350°) 8, порывы до 14 -11 -20 1026 более 10км, отсутствие осадков и облаков ниже 1500 м
2026-03-14 10:30 Переменный 1 -3 -11 1034 более 10км, отсутствие осадков и облаков ниже 1500 м
2026-03-14 03:00 ЮЗ (210°) 5 -3 -5 1027 более 10км, отсутствие осадков и облаков ниже 1500 м
2026-03-14 01:00 ЮЗ (210°) 4 -3 -7 1025 более 10км, отсутствие осадков и облаков ниже 1500 м